createdAt,value
2018-12-30T01:43:35.741Z,23.30
2018-12-30T03:55:02.288Z,30.57
2018-12-30T04:19:56.284Z,21.73
2018-12-30T04:22:56.152Z,21.97
2018-12-30T04:42:21.878Z,22.90
2018-12-30T04:57:04.327Z,25.97
2018-12-30T05:25:21.108Z,20.70
2018-12-30T05:27:55.063Z,22.80
2018-12-30T15:59:21.503Z,10.53
2018-12-30T16:01:52.935Z,19.03
2018-12-30T16:04:23.483Z,13.20
2018-12-30T16:06:54.661Z,13.90
2018-12-30T16:09:25.545Z,17.10
2018-12-30T16:12:07.201Z,12.63
2018-12-30T16:14:39.030Z,12.73
2018-12-30T16:17:10.276Z,14.50
2018-12-30T16:19:40.756Z,15.60
2018-12-30T16:22:13.800Z,16.53
2018-12-30T16:24:45.246Z,15.50
2018-12-30T16:27:18.760Z,21.00
2018-12-30T16:29:49.941Z,21.53
2018-12-30T16:32:21.416Z,17.43
2018-12-30T16:34:53.040Z,20.43
2018-12-30T16:37:24.392Z,15.90
2018-12-30T16:39:56.185Z,18.50
2018-12-30T16:42:28.176Z,20.00
2018-12-30T16:45:02.760Z,23.20
2018-12-30T16:47:41.884Z,18.83
2018-12-30T16:50:08.508Z,24.47
2018-12-30T16:52:40.106Z,19.60
2018-12-30T16:55:12.303Z,21.80
2018-12-30T16:57:43.642Z,16.40
2018-12-30T17:00:14.748Z,18.93
2018-12-30T17:02:50.002Z,17.77
2018-12-30T17:05:21.089Z,25.93
2018-12-30T17:07:51.994Z,27.13
2018-12-30T17:10:23.982Z,18.70
2018-12-30T17:12:57.626Z,18.10
2018-12-30T17:15:29.025Z,24.33
2018-12-30T17:17:59.647Z,15.23
2018-12-30T17:20:33.247Z,17.97
2018-12-30T17:23:04.707Z,10.90
2018-12-30T17:25:43.051Z,11.67
2018-12-30T17:28:09.943Z,13.90
2018-12-30T17:30:43.577Z,17.40
2018-12-30T17:33:15.244Z,15.87
2018-12-30T17:35:46.639Z,12.93
2018-12-30T17:38:17.615Z,16.57
2018-12-30T17:41:01.373Z,11.40
2018-12-30T17:43:27.302Z,12.53
2018-12-30T17:45:59.011Z,18.07
2018-12-30T17:48:30.112Z,18.87
2018-12-30T17:51:02.721Z,9.27
2018-12-30T17:53:35.535Z,14.03
2018-12-30T17:56:07.913Z,15.50
2018-12-30T17:58:39.352Z,11.77
2018-12-30T18:01:18.277Z,11.30
2018-12-30T18:03:50.054Z,13.53
2018-12-30T18:06:25.337Z,11.27
2018-12-30T18:09:00.754Z,12.50
2018-12-30T18:11:39.592Z,18.80
2018-12-30T18:14:11.356Z,12.40
2018-12-30T18:16:44.268Z,8.73
2018-12-30T18:19:38.340Z,10.17
2018-12-30T18:22:19.323Z,5.40
2018-12-30T18:24:55.900Z,18.47
2018-12-30T18:27:32.044Z,14.07
2018-12-30T18:30:05.051Z,11.90
2018-12-30T18:32:37.800Z,17.37
2018-12-30T18:35:22.911Z,11.40
2018-12-30T18:37:55.389Z,14.80
2018-12-30T18:40:28.081Z,19.07
2018-12-30T18:43:00.213Z,11.47
2018-12-30T18:45:32.456Z,10.30
2018-12-30T18:48:06.515Z,14.90
2018-12-30T18:50:38.718Z,16.73
2018-12-30T18:53:10.476Z,13.10
2018-12-30T18:55:46.523Z,11.63
2018-12-30T18:58:21.421Z,14.63
2018-12-30T19:00:54.508Z,18.60
2018-12-30T19:03:27.899Z,12.30
2018-12-30T19:06:01.361Z,10.97
2018-12-30T19:08:33.615Z,14.37
2018-12-30T19:11:07.656Z,13.73
2018-12-30T19:13:39.485Z,12.17
2018-12-30T19:16:10.837Z,13.47
2018-12-30T19:18:41.899Z,10.50
2018-12-30T19:21:14.981Z,16.33
2018-12-30T19:23:50.453Z,12.00
2018-12-30T19:26:22.282Z,13.60
2018-12-30T19:28:53.945Z,14.63
2018-12-30T19:31:27.039Z,11.20
2018-12-30T19:33:58.719Z,13.53
2018-12-30T19:36:31.074Z,14.10
2018-12-30T19:39:02.457Z,13.60
2018-12-30T19:41:34.207Z,12.10
2018-12-30T19:44:05.744Z,14.90
2018-12-30T19:46:37.949Z,16.50
2018-12-30T19:49:10.785Z,12.47
2018-12-30T19:51:41.866Z,12.40
2018-12-30T19:54:13.206Z,15.53
2018-12-30T19:56:44.336Z,13.57
2018-12-30T19:59:16.644Z,17.37
2018-12-30T20:01:47.880Z,11.13
2018-12-30T20:04:19.361Z,9.43
2018-12-30T20:06:52.295Z,13.00
2018-12-30T20:09:25.734Z,14.67
2018-12-30T20:11:56.133Z,12.50
2018-12-30T20:14:28.702Z,15.20
2018-12-30T20:17:00.353Z,10.60
2018-12-30T20:19:32.210Z,15.17
2018-12-30T20:22:04.503Z,14.13
2018-12-30T20:24:38.788Z,9.43
2018-12-30T20:27:14.800Z,16.70
2018-12-30T20:29:47.702Z,15.63
2018-12-30T20:32:20.936Z,17.23
2018-12-30T20:34:53.063Z,14.10
2018-12-30T20:37:30.240Z,13.10
2018-12-30T20:40:02.380Z,13.60
2018-12-30T20:42:38.695Z,22.07
2018-12-30T20:45:15.275Z,13.83
2018-12-30T20:47:53.309Z,15.90
2018-12-30T20:50:27.405Z,14.47
2018-12-30T20:53:03.316Z,17.17
2018-12-30T20:55:43.303Z,21.50
2018-12-30T20:58:21.209Z,18.73
2018-12-30T21:00:59.143Z,10.00
2018-12-30T21:03:45.266Z,16.43
2018-12-30T21:06:21.293Z,15.03
2018-12-30T21:09:17.912Z,20.67
2018-12-30T21:11:52.629Z,18.20
2018-12-30T21:14:30.074Z,20.43
2018-12-30T21:17:09.937Z,20.27
2018-12-30T21:19:50.701Z,17.10
2018-12-30T21:22:23.784Z,15.37
2018-12-30T21:24:56.485Z,16.47
2018-12-30T21:27:32.887Z,15.57
2018-12-30T21:30:07.989Z,19.13
2018-12-30T21:32:40.990Z,19.67
2018-12-30T21:35:16.746Z,19.03
2018-12-30T21:37:53.445Z,24.90
2018-12-30T21:40:25.338Z,15.80
2018-12-30T21:42:56.634Z,19.17
2018-12-30T21:45:33.451Z,18.07
2018-12-30T21:48:07.526Z,15.60
2018-12-30T21:50:41.513Z,19.10
2018-12-30T21:53:13.579Z,16.30
2018-12-30T21:55:45.550Z,18.33
2018-12-30T21:58:23.917Z,17.90
2018-12-30T22:00:55.000Z,17.30
2018-12-30T22:03:27.119Z,16.50
2018-12-30T22:06:00.414Z,18.23
2018-12-30T22:08:31.232Z,18.80
2018-12-30T22:11:05.509Z,16.33
2018-12-30T22:13:37.115Z,10.70
2018-12-30T22:16:09.076Z,13.23
2018-12-30T22:18:42.100Z,11.03
2018-12-30T22:21:13.239Z,10.40
2018-12-30T22:23:44.578Z,15.13
2018-12-30T22:26:16.757Z,13.80
2018-12-30T22:28:47.765Z,12.30
2018-12-30T22:31:19.244Z,9.97
2018-12-30T22:33:53.355Z,11.07
2018-12-30T22:36:24.832Z,15.93
2018-12-30T22:38:58.694Z,13.90
2018-12-30T22:41:29.877Z,8.40
2018-12-30T22:44:06.209Z,9.17
2018-12-30T22:46:38.166Z,12.83
2018-12-30T22:49:08.989Z,17.00
2018-12-30T22:51:40.115Z,7.77
2018-12-30T22:54:11.313Z,11.77
2018-12-30T22:56:44.745Z,11.37
2018-12-30T22:59:15.447Z,8.73
2018-12-30T23:01:47.347Z,7.67
2018-12-30T23:04:18.286Z,7.80
2018-12-30T23:06:49.635Z,5.73
2018-12-30T23:09:20.397Z,7.37
2018-12-30T23:11:51.226Z,8.63
2018-12-30T23:14:21.763Z,7.17
2018-12-30T23:16:52.401Z,7.50
2018-12-30T23:19:23.855Z,6.00
2018-12-30T23:21:54.434Z,6.60
2018-12-30T23:24:25.873Z,3.87
2018-12-30T23:26:56.905Z,4.23
2018-12-30T23:29:27.567Z,6.20
2018-12-30T23:31:59.008Z,5.93
2018-12-30T23:34:29.862Z,5.77
2018-12-30T23:37:00.176Z,5.93
2018-12-30T23:39:31.609Z,5.13
2018-12-30T23:42:02.114Z,2.50
2018-12-30T23:44:32.541Z,5.00
2018-12-30T23:47:02.937Z,3.10
2018-12-30T23:49:33.742Z,4.43
2018-12-30T23:52:04.088Z,4.47
2018-12-30T23:54:34.481Z,5.47
2018-12-30T23:57:04.826Z,4.07
2018-12-30T23:59:35.594Z,3.27
